sensor_id;sensor_type;location;lat;lon;timestamp;P1;durP1;ratioP1;P2;durP2;ratioP2
18505;SDS011;9382;53.242;10.438;2022-11-18T00:01:30;33.50;;;15.33;;
18505;SDS011;9382;53.242;10.438;2022-11-18T00:03:57;30.13;;;15.20;;
18505;SDS011;9382;53.242;10.438;2022-11-18T00:06:25;32.20;;;15.07;;
18505;SDS011;9382;53.242;10.438;2022-11-18T00:08:54;32.73;;;16.13;;
18505;SDS011;9382;53.242;10.438;2022-11-18T00:11:21;32.10;;;15.13;;
18505;SDS011;9382;53.242;10.438;2022-11-18T00:14:10;31.07;;;13.73;;
18505;SDS011;9382;53.242;10.438;2022-11-18T00:16:49;31.10;;;14.90;;
18505;SDS011;9382;53.242;10.438;2022-11-18T00:19:17;34.90;;;16.27;;
18505;SDS011;9382;53.242;10.438;2022-11-18T00:21:45;35.40;;;16.67;;
18505;SDS011;9382;53.242;10.438;2022-11-18T00:24:12;35.97;;;16.67;;
18505;SDS011;9382;53.242;10.438;2022-11-18T00:26:39;38.03;;;17.00;;
18505;SDS011;9382;53.242;10.438;2022-11-18T00:29:07;38.73;;;17.23;;
18505;SDS011;9382;53.242;10.438;2022-11-18T00:31:34;35.97;;;16.67;;
18505;SDS011;9382;53.242;10.438;2022-11-18T00:34:02;38.63;;;17.33;;
18505;SDS011;9382;53.242;10.438;2022-11-18T00:36:29;40.83;;;17.43;;
18505;SDS011;9382;53.242;10.438;2022-11-18T00:38:56;39.03;;;17.33;;
18505;SDS011;9382;53.242;10.438;2022-11-18T00:41:23;43.07;;;18.43;;
18505;SDS011;9382;53.242;10.438;2022-11-18T00:44:10;38.47;;;17.13;;
18505;SDS011;9382;53.242;10.438;2022-11-18T00:46:35;40.57;;;18.23;;
18505;SDS011;9382;53.242;10.438;2022-11-18T00:49:04;37.40;;;17.77;;
18505;SDS011;9382;53.242;10.438;2022-11-18T00:51:30;38.17;;;17.30;;
18505;SDS011;9382;53.242;10.438;2022-11-18T00:53:57;38.00;;;17.50;;
18505;SDS011;9382;53.242;10.438;2022-11-18T00:56:24;36.30;;;16.47;;
18505;SDS011;9382;53.242;10.438;2022-11-18T00:58:51;35.20;;;17.07;;
18505;SDS011;9382;53.242;10.438;2022-11-18T01:01:17;35.83;;;17.03;;
18505;SDS011;9382;53.242;10.438;2022-11-18T01:03:45;37.80;;;16.60;;
18505;SDS011;9382;53.242;10.438;2022-11-18T01:06:13;37.83;;;17.07;;
18505;SDS011;9382;53.242;10.438;2022-11-18T01:08:39;32.70;;;15.13;;
18505;SDS011;9382;53.242;10.438;2022-11-18T01:11:06;33.03;;;15.70;;
18505;SDS011;9382;53.242;10.438;2022-11-18T01:13:47;34.27;;;16.57;;
18505;SDS011;9382;53.242;10.438;2022-11-18T01:16:17;36.60;;;16.10;;
18505;SDS011;9382;53.242;10.438;2022-11-18T01:18:44;34.13;;;16.30;;
18505;SDS011;9382;53.242;10.438;2022-11-18T01:21:12;36.27;;;16.63;;
18505;SDS011;9382;53.242;10.438;2022-11-18T01:23:39;35.43;;;16.07;;
18505;SDS011;9382;53.242;10.438;2022-11-18T01:26:07;33.87;;;15.83;;
18505;SDS011;9382;53.242;10.438;2022-11-18T01:28:36;32.60;;;15.57;;
18505;SDS011;9382;53.242;10.438;2022-11-18T01:31:03;34.60;;;16.70;;
18505;SDS011;9382;53.242;10.438;2022-11-18T01:33:31;33.20;;;15.97;;
18505;SDS011;9382;53.242;10.438;2022-11-18T01:36:01;35.03;;;15.87;;
18505;SDS011;9382;53.242;10.438;2022-11-18T01:38:30;34.03;;;16.33;;
18505;SDS011;9382;53.242;10.438;2022-11-18T01:40:56;33.37;;;16.10;;
18505;SDS011;9382;53.242;10.438;2022-11-18T01:43:23;37.53;;;16.07;;
18505;SDS011;9382;53.242;10.438;2022-11-18T01:45:50;32.70;;;15.60;;
18505;SDS011;9382;53.242;10.438;2022-11-18T01:48:19;30.77;;;14.70;;
18505;SDS011;9382;53.242;10.438;2022-11-18T01:50:50;34.03;;;14.83;;
18505;SDS011;9382;53.242;10.438;2022-11-18T01:53:20;35.87;;;16.30;;
18505;SDS011;9382;53.242;10.438;2022-11-18T01:55:53;30.93;;;15.30;;
18505;SDS011;9382;53.242;10.438;2022-11-18T01:58:23;30.80;;;15.57;;
18505;SDS011;9382;53.242;10.438;2022-11-18T02:00:54;31.63;;;15.40;;
18505;SDS011;9382;53.242;10.438;2022-11-18T02:03:21;35.23;;;17.00;;
18505;SDS011;9382;53.242;10.438;2022-11-18T02:05:48;32.40;;;16.13;;
18505;SDS011;9382;53.242;10.438;2022-11-18T02:08:17;31.90;;;15.00;;
18505;SDS011;9382;53.242;10.438;2022-11-18T02:10:44;32.13;;;14.63;;
18505;SDS011;9382;53.242;10.438;2022-11-18T02:13:12;34.77;;;16.57;;
18505;SDS011;9382;53.242;10.438;2022-11-18T02:15:44;31.33;;;14.83;;
18505;SDS011;9382;53.242;10.438;2022-11-18T02:18:19;31.73;;;14.97;;
18505;SDS011;9382;53.242;10.438;2022-11-18T02:20:54;31.27;;;14.30;;
18505;SDS011;9382;53.242;10.438;2022-11-18T02:23:42;33.33;;;14.83;;
18505;SDS011;9382;53.242;10.438;2022-11-18T02:29:21;31.43;;;15.20;;
18505;SDS011;9382;53.242;10.438;2022-11-18T02:31:51;35.30;;;16.10;;
18505;SDS011;9382;53.242;10.438;2022-11-18T02:34:27;32.13;;;14.80;;
18505;SDS011;9382;53.242;10.438;2022-11-18T02:37:03;30.60;;;15.07;;
18505;SDS011;9382;53.242;10.438;2022-11-18T02:39:38;36.57;;;16.30;;
18505;SDS011;9382;53.242;10.438;2022-11-18T02:42:10;35.67;;;16.23;;
18505;SDS011;9382;53.242;10.438;2022-11-18T02:44:42;32.53;;;15.73;;
18505;SDS011;9382;53.242;10.438;2022-11-18T02:47:12;34.30;;;15.83;;
18505;SDS011;9382;53.242;10.438;2022-11-18T02:49:42;35.30;;;15.60;;
18505;SDS011;9382;53.242;10.438;2022-11-18T02:52:13;35.23;;;16.60;;
18505;SDS011;9382;53.242;10.438;2022-11-18T02:54:41;33.97;;;15.83;;
18505;SDS011;9382;53.242;10.438;2022-11-18T02:57:11;34.73;;;16.27;;
18505;SDS011;9382;53.242;10.438;2022-11-18T02:59:41;36.07;;;17.57;;
18505;SDS011;9382;53.242;10.438;2022-11-18T03:02:08;37.43;;;16.87;;
18505;SDS011;9382;53.242;10.438;2022-11-18T03:04:40;37.63;;;17.40;;
18505;SDS011;9382;53.242;10.438;2022-11-18T03:07:08;36.67;;;17.23;;
18505;SDS011;9382;53.242;10.438;2022-11-18T03:09:40;38.27;;;16.80;;
18505;SDS011;9382;53.242;10.438;2022-11-18T03:12:10;38.23;;;17.47;;
18505;SDS011;9382;53.242;10.438;2022-11-18T03:14:48;37.60;;;16.83;;
18505;SDS011;9382;53.242;10.438;2022-11-18T03:17:23;37.87;;;18.33;;
18505;SDS011;9382;53.242;10.438;2022-11-18T03:20:01;38.93;;;17.70;;
18505;SDS011;9382;53.242;10.438;2022-11-18T03:22:36;39.90;;;17.03;;
18505;SDS011;9382;53.242;10.438;2022-11-18T03:25:08;37.43;;;16.90;;
18505;SDS011;9382;53.242;10.438;2022-11-18T03:27:40;37.50;;;18.07;;
18505;SDS011;9382;53.242;10.438;2022-11-18T03:30:16;40.53;;;18.03;;
18505;SDS011;9382;53.242;10.438;2022-11-18T03:32:46;40.27;;;17.80;;
18505;SDS011;9382;53.242;10.438;2022-11-18T03:35:17;41.17;;;17.90;;
18505;SDS011;9382;53.242;10.438;2022-11-18T03:37:48;36.33;;;17.90;;
18505;SDS011;9382;53.242;10.438;2022-11-18T03:40:20;43.67;;;19.03;;
18505;SDS011;9382;53.242;10.438;2022-11-18T03:42:52;40.67;;;18.23;;
18505;SDS011;9382;53.242;10.438;2022-11-18T03:45:27;42.17;;;19.03;;
18505;SDS011;9382;53.242;10.438;2022-11-18T03:47:59;45.03;;;18.73;;
18505;SDS011;9382;53.242;10.438;2022-11-18T03:50:32;40.53;;;19.20;;
18505;SDS011;9382;53.242;10.438;2022-11-18T03:53:04;42.10;;;19.03;;
18505;SDS011;9382;53.242;10.438;2022-11-18T03:55:33;45.93;;;20.23;;
18505;SDS011;9382;53.242;10.438;2022-11-18T03:58:04;41.60;;;19.30;;
18505;SDS011;9382;53.242;10.438;2022-11-18T04:00:37;44.23;;;18.63;;
18505;SDS011;9382;53.242;10.438;2022-11-18T04:03:07;41.60;;;19.33;;
18505;SDS011;9382;53.242;10.438;2022-11-18T04:05:35;41.73;;;18.77;;
18505;SDS011;9382;53.242;10.438;2022-11-18T04:08:06;44.33;;;19.57;;
18505;SDS011;9382;53.242;10.438;2022-11-18T04:10:36;46.13;;;21.10;;
18505;SDS011;9382;53.242;10.438;2022-11-18T04:13:07;45.20;;;20.60;;
18505;SDS011;9382;53.242;10.438;2022-11-18T04:15:40;44.53;;;19.43;;
18505;SDS011;9382;53.242;10.438;2022-11-18T04:18:08;42.63;;;19.50;;
18505;SDS011;9382;53.242;10.438;2022-11-18T04:20:35;41.70;;;19.70;;
18505;SDS011;9382;53.242;10.438;2022-11-18T04:23:03;42.60;;;20.47;;
18505;SDS011;9382;53.242;10.438;2022-11-18T04:25:31;44.33;;;19.40;;
18505;SDS011;9382;53.242;10.438;2022-11-18T04:27:58;43.87;;;20.17;;
18505;SDS011;9382;53.242;10.438;2022-11-18T04:30:24;43.97;;;18.90;;
18505;SDS011;9382;53.242;10.438;2022-11-18T04:32:53;42.70;;;18.80;;
18505;SDS011;9382;53.242;10.438;2022-11-18T04:35:20;43.90;;;19.83;;
18505;SDS011;9382;53.242;10.438;2022-11-18T04:37:46;42.57;;;19.50;;
18505;SDS011;9382;53.242;10.438;2022-11-18T04:40:13;43.17;;;20.10;;
18505;SDS011;9382;53.242;10.438;2022-11-18T04:42:40;42.80;;;20.03;;
18505;SDS011;9382;53.242;10.438;2022-11-18T04:45:08;44.73;;;20.23;;
18505;SDS011;9382;53.242;10.438;2022-11-18T04:47:35;46.20;;;19.93;;
18505;SDS011;9382;53.242;10.438;2022-11-18T04:50:03;47.03;;;20.53;;
18505;SDS011;9382;53.242;10.438;2022-11-18T04:52:31;42.93;;;19.33;;
18505;SDS011;9382;53.242;10.438;2022-11-18T04:54:57;44.13;;;19.07;;
18505;SDS011;9382;53.242;10.438;2022-11-18T04:57:24;44.87;;;20.33;;
18505;SDS011;9382;53.242;10.438;2022-11-18T04:59:51;43.50;;;19.27;;
18505;SDS011;9382;53.242;10.438;2022-11-18T05:02:17;44.53;;;19.33;;
18505;SDS011;9382;53.242;10.438;2022-11-18T05:04:44;41.73;;;19.17;;
18505;SDS011;9382;53.242;10.438;2022-11-18T05:07:14;45.07;;;19.50;;
18505;SDS011;9382;53.242;10.438;2022-11-18T05:09:41;42.77;;;19.63;;
18505;SDS011;9382;53.242;10.438;2022-11-18T05:12:10;43.23;;;19.27;;
18505;SDS011;9382;53.242;10.438;2022-11-18T05:14:55;41.70;;;17.73;;
18505;SDS011;9382;53.242;10.438;2022-11-18T05:17:22;42.57;;;19.47;;
18505;SDS011;9382;53.242;10.438;2022-11-18T05:19:49;42.80;;;19.47;;
18505;SDS011;9382;53.242;10.438;2022-11-18T05:22:17;42.20;;;19.13;;
18505;SDS011;9382;53.242;10.438;2022-11-18T05:24:44;40.67;;;19.23;;
18505;SDS011;9382;53.242;10.438;2022-11-18T05:27:10;46.00;;;20.37;;
18505;SDS011;9382;53.242;10.438;2022-11-18T05:29:38;46.47;;;19.77;;
18505;SDS011;9382;53.242;10.438;2022-11-18T05:32:05;43.07;;;19.90;;
18505;SDS011;9382;53.242;10.438;2022-11-18T05:34:32;40.70;;;18.53;;
18505;SDS011;9382;53.242;10.438;2022-11-18T05:36:58;43.13;;;19.60;;
18505;SDS011;9382;53.242;10.438;2022-11-18T05:39:27;41.93;;;19.57;;
18505;SDS011;9382;53.242;10.438;2022-11-18T05:41:53;42.80;;;20.67;;
18505;SDS011;9382;53.242;10.438;2022-11-18T05:44:38;43.57;;;20.23;;
18505;SDS011;9382;53.242;10.438;2022-11-18T05:47:05;45.90;;;20.53;;
18505;SDS011;9382;53.242;10.438;2022-11-18T05:49:31;42.00;;;19.33;;
18505;SDS011;9382;53.242;10.438;2022-11-18T05:51:58;42.83;;;19.77;;
18505;SDS011;9382;53.242;10.438;2022-11-18T05:54:26;43.93;;;19.97;;
18505;SDS011;9382;53.242;10.438;2022-11-18T05:56:53;45.60;;;21.10;;
18505;SDS011;9382;53.242;10.438;2022-11-18T05:59:20;44.40;;;20.20;;
18505;SDS011;9382;53.242;10.438;2022-11-18T06:01:48;45.83;;;21.13;;
18505;SDS011;9382;53.242;10.438;2022-11-18T06:04:21;45.67;;;20.60;;
18505;SDS011;9382;53.242;10.438;2022-11-18T06:06:51;47.70;;;21.33;;
18505;SDS011;9382;53.242;10.438;2022-11-18T06:09:21;42.97;;;19.33;;
18505;SDS011;9382;53.242;10.438;2022-11-18T06:11:53;47.23;;;21.40;;
18505;SDS011;9382;53.242;10.438;2022-11-18T06:14:24;40.17;;;19.20;;
18505;SDS011;9382;53.242;10.438;2022-11-18T06:16:57;44.93;;;20.17;;
18505;SDS011;9382;53.242;10.438;2022-11-18T06:19:27;45.13;;;20.30;;
18505;SDS011;9382;53.242;10.438;2022-11-18T06:21:54;42.77;;;19.50;;
18505;SDS011;9382;53.242;10.438;2022-11-18T06:24:21;42.70;;;19.97;;
18505;SDS011;9382;53.242;10.438;2022-11-18T06:26:48;44.03;;;21.00;;
18505;SDS011;9382;53.242;10.438;2022-11-18T06:29:17;47.53;;;22.17;;
18505;SDS011;9382;53.242;10.438;2022-11-18T06:31:45;44.77;;;21.17;;
18505;SDS011;9382;53.242;10.438;2022-11-18T06:34:12;48.17;;;21.93;;
18505;SDS011;9382;53.242;10.438;2022-11-18T06:36:38;46.33;;;21.17;;
18505;SDS011;9382;53.242;10.438;2022-11-18T06:39:05;50.20;;;22.90;;
18505;SDS011;9382;53.242;10.438;2022-11-18T06:41:33;46.10;;;21.57;;
18505;SDS011;9382;53.242;10.438;2022-11-18T06:44:00;47.33;;;21.13;;
18505;SDS011;9382;53.242;10.438;2022-11-18T06:46:27;47.27;;;21.37;;
18505;SDS011;9382;53.242;10.438;2022-11-18T06:49:11;44.40;;;20.30;;
18505;SDS011;9382;53.242;10.438;2022-11-18T06:51:38;46.67;;;20.97;;
18505;SDS011;9382;53.242;10.438;2022-11-18T06:54:05;46.63;;;21.73;;
18505;SDS011;9382;53.242;10.438;2022-11-18T06:56:33;45.97;;;21.70;;
18505;SDS011;9382;53.242;10.438;2022-11-18T06:59:00;47.80;;;22.47;;
18505;SDS011;9382;53.242;10.438;2022-11-18T07:01:28;48.27;;;21.47;;
18505;SDS011;9382;53.242;10.438;2022-11-18T07:03:56;46.10;;;21.43;;
18505;SDS011;9382;53.242;10.438;2022-11-18T07:06:24;46.30;;;20.77;;
18505;SDS011;9382;53.242;10.438;2022-11-18T07:08:52;50.70;;;22.47;;
18505;SDS011;9382;53.242;10.438;2022-11-18T07:11:20;45.70;;;20.60;;
18505;SDS011;9382;53.242;10.438;2022-11-18T07:13:48;47.33;;;20.30;;
18505;SDS011;9382;53.242;10.438;2022-11-18T07:16:16;50.33;;;22.50;;
18505;SDS011;9382;53.242;10.438;2022-11-18T07:18:46;50.20;;;21.40;;
18505;SDS011;9382;53.242;10.438;2022-11-18T07:21:14;50.80;;;21.60;;
18505;SDS011;9382;53.242;10.438;2022-11-18T07:23:42;50.53;;;21.67;;
18505;SDS011;9382;53.242;10.438;2022-11-18T07:26:09;53.80;;;22.60;;
18505;SDS011;9382;53.242;10.438;2022-11-18T07:28:36;51.43;;;22.77;;
18505;SDS011;9382;53.242;10.438;2022-11-18T07:31:03;51.80;;;22.20;;
18505;SDS011;9382;53.242;10.438;2022-11-18T07:33:31;52.00;;;23.17;;
18505;SDS011;9382;53.242;10.438;2022-11-18T07:36:01;55.77;;;22.93;;
18505;SDS011;9382;53.242;10.438;2022-11-18T07:38:30;54.30;;;23.23;;
18505;SDS011;9382;53.242;10.438;2022-11-18T07:41:01;59.73;;;23.97;;
18505;SDS011;9382;53.242;10.438;2022-11-18T07:43:29;54.90;;;24.00;;
18505;SDS011;9382;53.242;10.438;2022-11-18T07:45:55;55.57;;;22.80;;
18505;SDS011;9382;53.242;10.438;2022-11-18T07:48:22;55.17;;;23.67;;
18505;SDS011;9382;53.242;10.438;2022-11-18T07:50:49;58.97;;;24.43;;
18505;SDS011;9382;53.242;10.438;2022-11-18T07:53:17;52.50;;;22.83;;
18505;SDS011;9382;53.242;10.438;2022-11-18T07:55:44;53.13;;;22.40;;
18505;SDS011;9382;53.242;10.438;2022-11-18T07:58:11;54.07;;;22.27;;
18505;SDS011;9382;53.242;10.438;2022-11-18T08:00:37;54.17;;;22.00;;
18505;SDS011;9382;53.242;10.438;2022-11-18T08:03:04;48.87;;;22.00;;
18505;SDS011;9382;53.242;10.438;2022-11-18T08:05:31;56.93;;;23.20;;
18505;SDS011;9382;53.242;10.438;2022-11-18T08:07:58;54.37;;;23.33;;
18505;SDS011;9382;53.242;10.438;2022-11-18T08:10:26;56.00;;;24.33;;
18505;SDS011;9382;53.242;10.438;2022-11-18T08:12:53;52.47;;;22.97;;
18505;SDS011;9382;53.242;10.438;2022-11-18T08:15:20;50.80;;;22.13;;
18505;SDS011;9382;53.242;10.438;2022-11-18T08:17:47;50.43;;;23.43;;
18505;SDS011;9382;53.242;10.438;2022-11-18T08:20:14;56.47;;;23.60;;
18505;SDS011;9382;53.242;10.438;2022-11-18T08:22:41;54.97;;;23.33;;
18505;SDS011;9382;53.242;10.438;2022-11-18T08:25:08;51.67;;;22.97;;
18505;SDS011;9382;53.242;10.438;2022-11-18T08:27:36;52.70;;;23.00;;
18505;SDS011;9382;53.242;10.438;2022-11-18T08:30:03;54.80;;;23.23;;
18505;SDS011;9382;53.242;10.438;2022-11-18T08:32:30;49.27;;;22.07;;
18505;SDS011;9382;53.242;10.438;2022-11-18T08:34:57;51.30;;;21.87;;
18505;SDS011;9382;53.242;10.438;2022-11-18T08:37:24;49.87;;;21.77;;
18505;SDS011;9382;53.242;10.438;2022-11-18T08:39:51;51.90;;;21.77;;
18505;SDS011;9382;53.242;10.438;2022-11-18T08:42:17;50.43;;;21.77;;
18505;SDS011;9382;53.242;10.438;2022-11-18T08:44:47;44.87;;;20.33;;
18505;SDS011;9382;53.242;10.438;2022-11-18T08:47:14;47.67;;;21.33;;
18505;SDS011;9382;53.242;10.438;2022-11-18T08:49:41;49.37;;;21.67;;
18505;SDS011;9382;53.242;10.438;2022-11-18T08:52:08;48.70;;;20.70;;
18505;SDS011;9382;53.242;10.438;2022-11-18T08:54:35;46.23;;;20.97;;
18505;SDS011;9382;53.242;10.438;2022-11-18T08:57:01;49.73;;;22.07;;
18505;SDS011;9382;53.242;10.438;2022-11-18T08:59:28;53.27;;;21.40;;
18505;SDS011;9382;53.242;10.438;2022-11-18T09:01:57;47.43;;;21.63;;
18505;SDS011;9382;53.242;10.438;2022-11-18T09:04:24;50.13;;;22.37;;
18505;SDS011;9382;53.242;10.438;2022-11-18T09:06:51;44.83;;;19.97;;
18505;SDS011;9382;53.242;10.438;2022-11-18T09:09:17;49.00;;;22.43;;
18505;SDS011;9382;53.242;10.438;2022-11-18T09:11:44;47.90;;;21.37;;
18505;SDS011;9382;53.242;10.438;2022-11-18T09:14:11;47.40;;;22.07;;
18505;SDS011;9382;53.242;10.438;2022-11-18T09:16:38;45.10;;;20.90;;
18505;SDS011;9382;53.242;10.438;2022-11-18T09:19:06;45.53;;;22.47;;
18505;SDS011;9382;53.242;10.438;2022-11-18T09:21:32;45.17;;;21.43;;
18505;SDS011;9382;53.242;10.438;2022-11-18T09:24:02;47.03;;;21.47;;
18505;SDS011;9382;53.242;10.438;2022-11-18T09:26:30;43.83;;;20.03;;
18505;SDS011;9382;53.242;10.438;2022-11-18T09:28:56;49.70;;;21.67;;
18505;SDS011;9382;53.242;10.438;2022-11-18T09:31:23;46.70;;;22.20;;
18505;SDS011;9382;53.242;10.438;2022-11-18T09:33:51;48.00;;;21.77;;
18505;SDS011;9382;53.242;10.438;2022-11-18T09:36:20;48.83;;;21.90;;
18505;SDS011;9382;53.242;10.438;2022-11-18T09:38:48;50.73;;;21.63;;
18505;SDS011;9382;53.242;10.438;2022-11-18T09:41:19;47.60;;;21.60;;
18505;SDS011;9382;53.242;10.438;2022-11-18T09:43:59;45.40;;;22.27;;
18505;SDS011;9382;53.242;10.438;2022-11-18T09:46:35;43.30;;;20.83;;
18505;SDS011;9382;53.242;10.438;2022-11-18T09:49:19;45.90;;;20.93;;
18505;SDS011;9382;53.242;10.438;2022-11-18T09:51:51;44.37;;;21.60;;
18505;SDS011;9382;53.242;10.438;2022-11-18T09:54:19;51.27;;;21.77;;
18505;SDS011;9382;53.242;10.438;2022-11-18T09:56:48;51.80;;;20.73;;
18505;SDS011;9382;53.242;10.438;2022-11-18T09:59:16;52.13;;;22.93;;
18505;SDS011;9382;53.242;10.438;2022-11-18T10:01:45;47.27;;;20.67;;
18505;SDS011;9382;53.242;10.438;2022-11-18T10:04:13;45.50;;;22.00;;
18505;SDS011;9382;53.242;10.438;2022-11-18T10:06:42;40.77;;;19.53;;
18505;SDS011;9382;53.242;10.438;2022-11-18T10:09:21;41.63;;;19.93;;
18505;SDS011;9382;53.242;10.438;2022-11-18T10:11:58;49.00;;;22.40;;
18505;SDS011;9382;53.242;10.438;2022-11-18T10:14:42;49.30;;;21.83;;
18505;SDS011;9382;53.242;10.438;2022-11-18T10:17:24;46.10;;;21.80;;
18505;SDS011;9382;53.242;10.438;2022-11-18T10:20:03;41.67;;;21.20;;
18505;SDS011;9382;53.242;10.438;2022-11-18T10:22:43;47.07;;;20.37;;
18505;SDS011;9382;53.242;10.438;2022-11-18T10:25:15;42.67;;;20.63;;
18505;SDS011;9382;53.242;10.438;2022-11-18T10:27:43;43.57;;;21.13;;
18505;SDS011;9382;53.242;10.438;2022-11-18T10:30:11;41.07;;;20.00;;
18505;SDS011;9382;53.242;10.438;2022-11-18T10:32:52;41.47;;;20.03;;
18505;SDS011;9382;53.242;10.438;2022-11-18T10:35:22;39.10;;;19.93;;
18505;SDS011;9382;53.242;10.438;2022-11-18T10:37:58;36.83;;;19.53;;
18505;SDS011;9382;53.242;10.438;2022-11-18T10:40:29;37.83;;;19.07;;
18505;SDS011;9382;53.242;10.438;2022-11-18T10:42:56;37.37;;;19.47;;
18505;SDS011;9382;53.242;10.438;2022-11-18T10:45:24;39.23;;;19.53;;
18505;SDS011;9382;53.242;10.438;2022-11-18T10:47:56;37.00;;;20.43;;
18505;SDS011;9382;53.242;10.438;2022-11-18T10:50:27;41.17;;;19.97;;
18505;SDS011;9382;53.242;10.438;2022-11-18T10:52:55;36.17;;;18.20;;
18505;SDS011;9382;53.242;10.438;2022-11-18T10:55:22;34.50;;;18.53;;
18505;SDS011;9382;53.242;10.438;2022-11-18T10:57:53;37.73;;;20.13;;
18505;SDS011;9382;53.242;10.438;2022-11-18T11:00:35;36.93;;;19.17;;
18505;SDS011;9382;53.242;10.438;2022-11-18T11:03:24;36.87;;;18.97;;
18505;SDS011;9382;53.242;10.438;2022-11-18T11:06:14;32.83;;;17.70;;
18505;SDS011;9382;53.242;10.438;2022-11-18T11:08:56;33.40;;;18.37;;
18505;SDS011;9382;53.242;10.438;2022-11-18T11:11:26;34.77;;;18.53;;
18505;SDS011;9382;53.242;10.438;2022-11-18T11:13:57;33.47;;;16.93;;
18505;SDS011;9382;53.242;10.438;2022-11-18T11:16:41;35.23;;;18.03;;
18505;SDS011;9382;53.242;10.438;2022-11-18T11:19:12;35.43;;;18.67;;
18505;SDS011;9382;53.242;10.438;2022-11-18T11:21:43;37.40;;;19.23;;
18505;SDS011;9382;53.242;10.438;2022-11-18T11:24:10;34.53;;;18.50;;
18505;SDS011;9382;53.242;10.438;2022-11-18T11:26:40;33.47;;;18.13;;
18505;SDS011;9382;53.242;10.438;2022-11-18T11:29:24;32.57;;;18.43;;
18505;SDS011;9382;53.242;10.438;2022-11-18T11:32:01;32.70;;;17.50;;
18505;SDS011;9382;53.242;10.438;2022-11-18T11:34:37;30.93;;;16.17;;
18505;SDS011;9382;53.242;10.438;2022-11-18T11:37:11;32.17;;;16.57;;
18505;SDS011;9382;53.242;10.438;2022-11-18T11:39:52;33.83;;;17.97;;
18505;SDS011;9382;53.242;10.438;2022-11-18T11:42:38;28.93;;;15.20;;
18505;SDS011;9382;53.242;10.438;2022-11-18T11:45:18;34.50;;;16.27;;
18505;SDS011;9382;53.242;10.438;2022-11-18T11:47:58;28.50;;;15.60;;
18505;SDS011;9382;53.242;10.438;2022-11-18T11:50:40;31.73;;;15.50;;
18505;SDS011;9382;53.242;10.438;2022-11-18T11:53:26;29.33;;;16.00;;
18505;SDS011;9382;53.242;10.438;2022-11-18T11:56:11;27.10;;;14.50;;
18505;SDS011;9382;53.242;10.438;2022-11-18T11:58:47;26.30;;;14.90;;
18505;SDS011;9382;53.242;10.438;2022-11-18T12:01:29;26.43;;;14.90;;
18505;SDS011;9382;53.242;10.438;2022-11-18T12:04:01;26.87;;;13.57;;
18505;SDS011;9382;53.242;10.438;2022-11-18T12:06:40;28.63;;;14.67;;
18505;SDS011;9382;53.242;10.438;2022-11-18T12:09:10;26.77;;;14.90;;
18505;SDS011;9382;53.242;10.438;2022-11-18T12:11:41;23.93;;;13.63;;
18505;SDS011;9382;53.242;10.438;2022-11-18T12:14:15;24.87;;;13.63;;
18505;SDS011;9382;53.242;10.438;2022-11-18T12:16:55;24.83;;;13.87;;
18505;SDS011;9382;53.242;10.438;2022-11-18T12:19:27;24.77;;;13.77;;
18505;SDS011;9382;53.242;10.438;2022-11-18T12:21:55;24.53;;;13.83;;
18505;SDS011;9382;53.242;10.438;2022-11-18T12:24:28;26.13;;;14.40;;
18505;SDS011;9382;53.242;10.438;2022-11-18T12:26:58;25.17;;;14.07;;
18505;SDS011;9382;53.242;10.438;2022-11-18T12:29:30;23.13;;;12.77;;
18505;SDS011;9382;53.242;10.438;2022-11-18T12:32:11;24.57;;;13.03;;
18505;SDS011;9382;53.242;10.438;2022-11-18T12:34:54;26.27;;;13.60;;
18505;SDS011;9382;53.242;10.438;2022-11-18T12:37:44;24.87;;;14.10;;
18505;SDS011;9382;53.242;10.438;2022-11-18T12:40:32;22.33;;;13.80;;
18505;SDS011;9382;53.242;10.438;2022-11-18T12:43:10;22.67;;;13.20;;
18505;SDS011;9382;53.242;10.438;2022-11-18T12:46:48;21.13;;;12.77;;
18505;SDS011;9382;53.242;10.438;2022-11-18T12:52:48;22.20;;;12.77;;
18505;SDS011;9382;53.242;10.438;2022-11-18T12:55:29;20.10;;;11.73;;
18505;SDS011;9382;53.242;10.438;2022-11-18T12:57:58;21.27;;;12.70;;
18505;SDS011;9382;53.242;10.438;2022-11-18T13:00:29;20.97;;;11.57;;
18505;SDS011;9382;53.242;10.438;2022-11-18T13:03:19;18.10;;;11.10;;
18505;SDS011;9382;53.242;10.438;2022-11-18T13:05:48;19.13;;;12.17;;
18505;SDS011;9382;53.242;10.438;2022-11-18T13:08:17;19.23;;;11.43;;
18505;SDS011;9382;53.242;10.438;2022-11-18T13:10:45;20.37;;;12.23;;
18505;SDS011;9382;53.242;10.438;2022-11-18T13:13:21;18.87;;;11.07;;
18505;SDS011;9382;53.242;10.438;2022-11-18T13:15:51;19.53;;;11.07;;
18505;SDS011;9382;53.242;10.438;2022-11-18T13:18:47;16.53;;;10.47;;
18505;SDS011;9382;53.242;10.438;2022-11-18T13:21:21;18.67;;;11.53;;
18505;SDS011;9382;53.242;10.438;2022-11-18T13:24:11;17.63;;;10.33;;
18505;SDS011;9382;53.242;10.438;2022-11-18T13:26:39;18.50;;;10.23;;
18505;SDS011;9382;53.242;10.438;2022-11-18T13:29:18;18.33;;;10.73;;
18505;SDS011;9382;53.242;10.438;2022-11-18T13:31:57;20.60;;;11.53;;
18505;SDS011;9382;53.242;10.438;2022-11-18T13:34:36;18.07;;;11.03;;
18505;SDS011;9382;53.242;10.438;2022-11-18T13:37:11;19.83;;;11.47;;
18505;SDS011;9382;53.242;10.438;2022-11-18T13:39:43;16.97;;;10.83;;
18505;SDS011;9382;53.242;10.438;2022-11-18T13:42:13;17.10;;;10.43;;
18505;SDS011;9382;53.242;10.438;2022-11-18T13:44:43;18.10;;;11.07;;
18505;SDS011;9382;53.242;10.438;2022-11-18T13:47:15;18.77;;;11.30;;
18505;SDS011;9382;53.242;10.438;2022-11-18T13:49:49;20.57;;;11.53;;
18505;SDS011;9382;53.242;10.438;2022-11-18T13:52:23;19.50;;;11.90;;
18505;SDS011;9382;53.242;10.438;2022-11-18T13:54:54;19.90;;;11.63;;
18505;SDS011;9382;53.242;10.438;2022-11-18T13:57:25;22.90;;;12.77;;
18505;SDS011;9382;53.242;10.438;2022-11-18T13:59:53;21.07;;;12.00;;
18505;SDS011;9382;53.242;10.438;2022-11-18T14:02:20;20.00;;;12.40;;
18505;SDS011;9382;53.242;10.438;2022-11-18T14:04:48;22.33;;;12.90;;
18505;SDS011;9382;53.242;10.438;2022-11-18T14:07:26;20.67;;;12.73;;
18505;SDS011;9382;53.242;10.438;2022-11-18T14:09:57;21.27;;;12.13;;
18505;SDS011;9382;53.242;10.438;2022-11-18T14:12:26;18.33;;;12.20;;
18505;SDS011;9382;53.242;10.438;2022-11-18T14:15:12;23.30;;;13.17;;
18505;SDS011;9382;53.242;10.438;2022-11-18T14:17:49;20.27;;;12.47;;
18505;SDS011;9382;53.242;10.438;2022-11-18T14:20:17;20.17;;;12.40;;
18505;SDS011;9382;53.242;10.438;2022-11-18T14:22:44;19.83;;;11.47;;
18505;SDS011;9382;53.242;10.438;2022-11-18T14:25:17;19.40;;;11.37;;
18505;SDS011;9382;53.242;10.438;2022-11-18T14:27:50;21.83;;;11.47;;
18505;SDS011;9382;53.242;10.438;2022-11-18T14:30:30;21.43;;;12.67;;
18505;SDS011;9382;53.242;10.438;2022-11-18T14:33:06;19.90;;;12.73;;
18505;SDS011;9382;53.242;10.438;2022-11-18T14:35:43;24.70;;;13.43;;
18505;SDS011;9382;53.242;10.438;2022-11-18T14:38:13;24.07;;;13.87;;
18505;SDS011;9382;53.242;10.438;2022-11-18T14:40:43;26.97;;;15.83;;
18505;SDS011;9382;53.242;10.438;2022-11-18T14:43:10;27.10;;;16.37;;
18505;SDS011;9382;53.242;10.438;2022-11-18T14:45:38;26.43;;;16.60;;
18505;SDS011;9382;53.242;10.438;2022-11-18T14:48:05;28.03;;;16.13;;
18505;SDS011;9382;53.242;10.438;2022-11-18T14:50:36;24.97;;;14.57;;